Spirit Of Baltimore — WDE9403 — position and weather

sailwx.info

Track history (hours):
 
Tides and Currents Weather Stations Pressure Air Temp Water Temp Dewpoint Dewpoint Depression Visibility Wind Speed Wind Dir Waves Ship Positions

Spirit Of Baltimore

Owner: Spirit Cruises, LLC, Baltimore, MD. More information available from US FCC via Universal Licensing System and Coast Guard Vessel Documentation Center.

Last reported at 2018-Jun-19 23:00 UTC. Time now 2018-Jun-19 23:26 UTC.
Position N 39°17' W 076°37'.

Length 40 m; draft 1.6 m.

Type: Passenger vessel. MMSI: 367416810.

Date/timePositionNaut miles runAvg speedWind from/ knotsBaromVisibWave heightAir tempDewpointWater temp
2018-Jun-19 23:00N 39°17' W 076°37'0 0.2
2018-Jun-19 22:28N 39°17' W 076°37'0 0.0
2018-Jun-19 21:58N 39°17' W 076°37'0 0.0
2018-Jun-19 21:28N 39°17' W 076°37'0 0.0
2018-Jun-19 20:58N 39°17' W 076°37'0 0.0
2018-Jun-19 20:28N 39°17' W 076°37'0 0.0
2018-Jun-19 19:55N 39°17' W 076°37'0 0.0
2018-Jun-19 19:28N 39°17' W 076°37'0 0.0
2018-Jun-19 18:58N 39°17' W 076°37'0 0.0
2018-Jun-19 18:28N 39°17' W 076°37'0 0.0
2018-Jun-19 18:00N 39°17' W 076°37'3 5.9
2018-Jun-19 17:30N 39°15' W 076°34'3 6.0
2018-Jun-19 17:01N 39°13' W 076°31'3 6.6
2018-Jun-19 16:30N 39°15' W 076°34'3 5.3
2018-Jun-19 16:00N 39°17' W 076°37'0 0.0
2018-Jun-18 00:24N 39°17' W 076°37'0 0.0
2018-Jun-18 00:00N 39°17' W 076°37'1 1.6
2018-Jun-17 23:30N 39°17' W 076°36'3 6.3
2018-Jun-17 23:00N 39°14' W 076°33'3 6.3
2018-Jun-17 22:30N 39°17' W 076°36'1 1.8
2018-Jun-17 22:00N 39°17' W 076°37'0 0.0
2018-Jun-17 21:30N 39°17' W 076°37'0 0.0
2018-Jun-17 21:00N 39°17' W 076°37'0 0.0
2018-Jun-17 20:30N 39°17' W 076°37'0 0.0
2018-Jun-17 20:00N 39°17' W 076°37'0 0.0
2018-Jun-17 19:30N 39°17' W 076°37'0 0.0
2018-Jun-17 19:00N 39°17' W 076°37'0 0.0
2018-Jun-17 18:30N 39°17' W 076°37'0 0.0
2018-Jun-17 18:00N 39°17' W 076°37'2 4.0
2018-Jun-17 17:30N 39°16' W 076°35'3 6.5
2018-Jun-17 17:01N 39°13' W 076°32'3 6.9
2018-Jun-17 16:30N 39°16' W 076°35'2 3.5
2018-Jun-17 16:00N 39°17' W 076°37'0 0.0
2018-Jun-17 15:30N 39°17' W 076°37'0 0.0
2018-Jun-17 15:00N 39°17' W 076°37'0 0.0
2018-Jun-17 07:14N 39°17' W 076°37'0 0.0
2018-Jun-17 07:00N 39°17' W 076°37'1 1.1
2018-Jun-17 06:30N 39°17' W 076°36'3 5.9
2018-Jun-17 06:00N 39°15' W 076°33'1 1.6
2018-Jun-17 05:30N 39°15' W 076°34'1 1.0
2018-Jun-17 05:00N 39°16' W 076°34'1 3.0
2018-Jun-17 04:30N 39°17' W 076°36'1 1.5
2018-Jun-17 04:00N 39°17' W 076°37'0 0.0
2018-Jun-17 03:30N 39°17' W 076°37'0 0.0
2018-Jun-17 02:57N 39°17' W 076°37'0 0.0
2018-Jun-17 02:30N 39°17' W 076°37'0 0.0
2018-Jun-17 02:00N 39°17' W 076°37'1 2.0
2018-Jun-17 01:30N 39°17' W 076°36'3 5.5
2018-Jun-17 01:00N 39°15' W 076°33'4 7.8
2018-Jun-17 00:30N 39°12' W 076°30'2 4.5
2018-Jun-17 00:01N 39°13' W 076°32'4 7.7
2018-Jun-16 23:30N 39°16' W 076°35'2 2.9
2018-Jun-16 22:59N 39°17' W 076°37'0 0.0
2018-Jun-16 22:29N 39°17' W 076°37'0 0.0
2018-Jun-16 21:59N 39°17' W 076°37'0 0.0
2018-Jun-16 21:29N 39°17' W 076°37'0 0.0
2018-Jun-16 20:59N 39°17' W 076°37'0 0.0
2018-Jun-16 20:29N 39°17' W 076°37'0 0.0
2018-Jun-16 19:59N 39°17' W 076°37'0 0.0
2018-Jun-16 19:29N 39°17' W 076°37'0 0.0
2018-Jun-16 18:59N 39°17' W 076°37'0 0.0
2018-Jun-16 18:29N 39°17' W 076°37'0 0.0
2018-Jun-16 18:00N 39°17' W 076°37'2 3.2
2018-Jun-16 17:30N 39°16' W 076°35'3 6.7
2018-Jun-16 17:01N 39°14' W 076°32'3 6.0
2018-Jun-16 16:30N 39°16' W 076°35'2 3.7
2018-Jun-16 16:00N 39°17' W 076°37'0 0.0
2018-Jun-16 15:28N 39°17' W 076°37'0 0.0
2018-Jun-16 02:14N 39°17' W 076°37'0 0.0
2018-Jun-16 02:00N 39°17' W 076°37'2 3.8
2018-Jun-16 01:30N 39°16' W 076°35'3 6.0
2018-Jun-16 01:00N 39°14' W 076°32'4 7.2
2018-Jun-16 00:30N 39°11' W 076°29'3 6.0
2018-Jun-16 00:00N 39°13' W 076°32'4 7.4
2018-Jun-15 23:31N 39°16' W 076°35'2 0.1
2018-Jun-15 01:52N 39°17' W 076°37'0 0.0
2018-Jun-15 01:28N 39°17' W 076°37'2 3.7
2018-Jun-15 01:00N 39°16' W 076°35'3 6.0
2018-Jun-15 00:30N 39°14' W 076°32'0 0.9
2018-Jun-15 00:00N 39°14' W 076°33'3 6.7
2018-Jun-14 23:30N 39°17' W 076°36'1 1.6
2018-Jun-14 23:00N 39°17' W 076°37'0 0.0
2018-Jun-14 22:30N 39°17' W 076°37'0 0.0
2018-Jun-14 22:00N 39°17' W 076°37'0 0.0
2018-Jun-14 21:30N 39°17' W 076°37'2 3.9
2018-Jun-14 21:00N 39°16' W 076°35'3 6.2
2018-Jun-14 20:31N 39°14' W 076°32'3 6.3
2018-Jun-14 20:00N 39°16' W 076°35'2 3.4
2018-Jun-14 19:28N 39°17' W 076°37'0 0.0
2018-Jun-14 01:34N 39°17' W 076°37'0 0.0
2018-Jun-14 01:30N 39°17' W 076°37'0 0.5
2018-Jun-14 01:00N 39°17' W 076°36'0 0.0
2018-Jun-14 00:30N 39°17' W 076°36'2 3.8
2018-Jun-14 00:00N 39°16' W 076°34'0 0.5
2018-Jun-13 23:30N 39°16' W 076°34'2 4.2
2018-Jun-13 23:00N 39°17' W 076°36'0 0.0
2018-Jun-13 22:25N 39°17' W 076°36'0 0.0
2018-Jun-13 21:58N 39°17' W 076°36'0 0.0
2018-Jun-13 21:25N 39°17' W 076°36'0 0.7
2018-Jun-13 20:59N 39°17' W 076°37'0 0.1
2018-Jun-13 20:29N 39°17' W 076°37'0 0.0
2018-Jun-13 19:59N 39°17' W 076°37'0 0.0
2018-Jun-13 19:29N 39°17' W 076°37'0 0.0
2018-Jun-13 18:53N 39°17' W 076°37'0 0.0
2018-Jun-13 18:29N 39°17' W 076°37'0 0.0
2018-Jun-13 17:59N 39°17' W 076°37'2 4.7
2018-Jun-13 17:31N 39°16' W 076°34'3 6.9
2018-Jun-13 17:00N 39°13' W 076°31'3 5.8
2018-Jun-13 16:31N 39°15' W 076°34'3 5.4
2018-Jun-13 15:59N 39°17' W 076°37'0 0.1
2018-Jun-13 15:29N 39°17' W 076°37'0 0.0
2018-Jun-13 14:56N 39°17' W 076°37'0 0.0
2018-Jun-13 14:29N 39°17' W 076°37'0 0.0
2018-Jun-13 01:59N 39°17' W 076°37'0 0.1
2018-Jun-13 01:30N 39°17' W 076°37'2 4.1
2018-Jun-13 01:00N 39°16' W 076°34'4 7.2
2018-Jun-13 00:30N 39°13' W 076°32'1 3.0
2018-Jun-13 00:01N 39°14' W 076°33'3 5.8
2018-Jun-12 23:30N 39°17' W 076°35'1 2.1
2018-Jun-12 22:53N 39°17' W 076°37'0 0.0
2018-Jun-12 22:29N 39°17' W 076°37'0 0.0
2018-Jun-12 22:00N 39°17' W 076°37'0 0.0
2018-Jun-12 21:31N 39°17' W 076°37'0 0.0
2018-Jun-12 20:59N 39°17' W 076°37'0 0.0
2018-Jun-12 20:30N 39°17' W 076°37'0 0.0
2018-Jun-12 20:00N 39°17' W 076°37'0 0.0
2018-Jun-12 19:30N 39°17' W 076°37'0 0.0
2018-Jun-12 19:00N 39°17' W 076°37'0 0.0
2018-Jun-12 18:30N 39°17' W 076°37'0 0.0
2018-Jun-12 18:00N 39°17' W 076°37'0 0.0
2018-Jun-12 17:31N 39°17' W 076°37'2 4.9
2018-Jun-12 17:01N 39°16' W 076°34'2 4.7
2018-Jun-12 16:31N 39°14' W 076°33'3 6.3
2018-Jun-12 16:01N 39°16' W 076°35'2 3.2
2018-Jun-12 15:28N 39°17' W 076°37'0 0.0
2018-Jun-12 14:58N 39°17' W 076°37'0 0.0
2018-Jun-12 01:46N 39°17' W 076°37'0 0.0
2018-Jun-12 01:29N 39°17' W 076°37'1 1.9
2018-Jun-12 01:01N 39°17' W 076°36'3 5.4
2018-Jun-12 00:30N 39°15' W 076°33'2 3.1
2018-Jun-12 00:01N 39°13' W 076°32'3 6.2
2018-Jun-11 23:30N 39°16' W 076°35'2 4.0
2018-Jun-11 23:00N 39°17' W 076°37'0 0.1
2018-Jun-11 22:29N 39°17' W 076°37'0 0.1
2018-Jun-11 21:59N 39°17' W 076°37'0 0.0
2018-Jun-11 21:29N 39°17' W 076°37'0 0.0
2018-Jun-11 20:59N 39°17' W 076°37'0 0.0
2018-Jun-11 20:29N 39°17' W 076°37'0 0.0
2018-Jun-11 19:59N 39°17' W 076°37'0 0.0
2018-Jun-11 19:29N 39°17' W 076°37'0 0.0
2018-Jun-11 19:01N 39°17' W 076°37'2 4.3
2018-Jun-11 18:31N 39°16' W 076°34'2 4.4
2018-Jun-11 18:00N 39°14' W 076°32'1 2.1
2018-Jun-11 17:30N 39°13' W 076°32'3 5.1
2018-Jun-11 17:01N 39°15' W 076°34'2 4.8
2018-Jun-11 16:30N 39°17' W 076°36'0 0.5
2018-Jun-11 16:01N 39°17' W 076°37'0 0.0
2018-Jun-10 23:46N 39°17' W 076°37'0 0.0
2018-Jun-10 23:30N 39°17' W 076°37'1 2.5
2018-Jun-10 23:00N 39°17' W 076°35'3 6.3
2018-Jun-10 22:30N 39°14' W 076°33'0 0.7
2018-Jun-10 22:00N 39°14' W 076°33'3 5.2
2018-Jun-10 21:30N 39°16' W 076°35'1 2.5
2018-Jun-10 20:57N 39°17' W 076°37'0 0.0
2018-Jun-10 20:24N 39°17' W 076°37'0 0.0
2018-Jun-10 20:00N 39°17' W 076°37'0 0.0
2018-Jun-10 19:30N 39°17' W 076°37'0 0.0
2018-Jun-10 19:00N 39°17' W 076°37'0 0.0
2018-Jun-10 18:30N 39°17' W 076°37'0 0.0
2018-Jun-10 18:00N 39°17' W 076°37'2 3.8
2018-Jun-10 17:30N 39°16' W 076°35'4 7.7
2018-Jun-10 17:01N 39°13' W 076°32'3 6.5
2018-Jun-10 16:30N 39°16' W 076°34'2 4.4
2018-Jun-10 15:58N 39°17' W 076°37'0 0.0
2018-Jun-10 15:28N 39°17' W 076°37'0 0.0
2018-Jun-10 14:58N 39°17' W 076°37'0 0.0
2018-Jun-10 06:27N 39°17' W 076°37'0 0.0
2018-Jun-10 06:00N 39°17' W 076°37'2 4.4
2018-Jun-10 05:30N 39°16' W 076°34'0 0.2
2018-Jun-10 05:01N 39°16' W 076°34'2 3.1
2018-Jun-10 04:31N 39°17' W 076°36'1 1.1
2018-Jun-10 04:00N 39°17' W 076°37'0 0.0
2018-Jun-10 03:30N 39°17' W 076°37'0 0.0
2018-Jun-10 03:00N 39°17' W 076°37'0 0.0
2018-Jun-10 02:30N 39°17' W 076°37'0 0.0
2018-Jun-10 02:00N 39°17' W 076°37'2 3.4
2018-Jun-10 01:30N 39°16' W 076°35'1 2.8
2018-Jun-10 01:00N 39°15' W 076°34'3 6.1
2018-Jun-10 00:31N 39°13' W 076°31'2 4.4
2018-Jun-10 00:00N 39°14' W 076°33'3 5.3
2018-Jun-09 23:30N 39°16' W 076°35'  
Track history (hours):
 
Tides and Currents Weather Stations Pressure Air Temp Water Temp Dewpoint Dewpoint Depression Visibility Wind Speed Wind Dir Waves Ship Positions

Spirit Of Baltimore

Owner: Spirit Cruises, LLC, Baltimore, MD. More information available from US FCC via Universal Licensing System and Coast Guard Vessel Documentation Center.

Last reported at 2018-Jun-19 23:00 UTC. Time now 2018-Jun-19 23:26 UTC.
Position N 39°17' W 076°37'.

Length 40 m; draft 1.6 m.

Type: Passenger vessel. MMSI: 367416810.

Date/timePositionNaut miles runAvg speedWind from/ knotsBaromVisibWave heightAir tempDewpointWater temp
2018-Jun-19 23:00N 39°17' W 076°37'0 0.2
2018-Jun-19 22:28N 39°17' W 076°37'0 0.0
2018-Jun-19 21:58N 39°17' W 076°37'0 0.0
2018-Jun-19 21:28N 39°17' W 076°37'0 0.0
2018-Jun-19 20:58N 39°17' W 076°37'0 0.0
2018-Jun-19 20:28N 39°17' W 076°37'0 0.0
2018-Jun-19 19:55N 39°17' W 076°37'0 0.0
2018-Jun-19 19:28N 39°17' W 076°37'0 0.0
2018-Jun-19 18:58N 39°17' W 076°37'0 0.0
2018-Jun-19 18:28N 39°17' W 076°37'0 0.0
2018-Jun-19 18:00N 39°17' W 076°37'3 5.9
2018-Jun-19 17:30N 39°15' W 076°34'3 6.0
2018-Jun-19 17:01N 39°13' W 076°31'3 6.6
2018-Jun-19 16:30N 39°15' W 076°34'3 5.3
2018-Jun-19 16:00N 39°17' W 076°37'0 0.0
2018-Jun-18 00:24N 39°17' W 076°37'0 0.0
2018-Jun-18 00:00N 39°17' W 076°37'1 1.6
2018-Jun-17 23:30N 39°17' W 076°36'3 6.3
2018-Jun-17 23:00N 39°14' W 076°33'3 6.3
2018-Jun-17 22:30N 39°17' W 076°36'1 1.8
2018-Jun-17 22:00N 39°17' W 076°37'0 0.0
2018-Jun-17 21:30N 39°17' W 076°37'0 0.0
2018-Jun-17 21:00N 39°17' W 076°37'0 0.0
2018-Jun-17 20:30N 39°17' W 076°37'0 0.0
2018-Jun-17 20:00N 39°17' W 076°37'0 0.0
2018-Jun-17 19:30N 39°17' W 076°37'0 0.0
2018-Jun-17 19:00N 39°17' W 076°37'0 0.0
2018-Jun-17 18:30N 39°17' W 076°37'0 0.0
2018-Jun-17 18:00N 39°17' W 076°37'2 4.0
2018-Jun-17 17:30N 39°16' W 076°35'3 6.5
2018-Jun-17 17:01N 39°13' W 076°32'3 6.9
2018-Jun-17 16:30N 39°16' W 076°35'2 3.5
2018-Jun-17 16:00N 39°17' W 076°37'0 0.0
2018-Jun-17 15:30N 39°17' W 076°37'0 0.0
2018-Jun-17 15:00N 39°17' W 076°37'0 0.0
2018-Jun-17 07:14N 39°17' W 076°37'0 0.0
2018-Jun-17 07:00N 39°17' W 076°37'1 1.1
2018-Jun-17 06:30N 39°17' W 076°36'3 5.9
2018-Jun-17 06:00N 39°15' W 076°33'1 1.6
2018-Jun-17 05:30N 39°15' W 076°34'1 1.0
2018-Jun-17 05:00N 39°16' W 076°34'1 3.0
2018-Jun-17 04:30N 39°17' W 076°36'1 1.5
2018-Jun-17 04:00N 39°17' W 076°37'0 0.0
2018-Jun-17 03:30N 39°17' W 076°37'0 0.0
2018-Jun-17 02:57N 39°17' W 076°37'0 0.0
2018-Jun-17 02:30N 39°17' W 076°37'0 0.0
2018-Jun-17 02:00N 39°17' W 076°37'1 2.0
2018-Jun-17 01:30N 39°17' W 076°36'3 5.5
2018-Jun-17 01:00N 39°15' W 076°33'4 7.8
2018-Jun-17 00:30N 39°12' W 076°30'2 4.5
2018-Jun-17 00:01N 39°13' W 076°32'4 7.7
2018-Jun-16 23:30N 39°16' W 076°35'2 2.9
2018-Jun-16 22:59N 39°17' W 076°37'0 0.0
2018-Jun-16 22:29N 39°17' W 076°37'0 0.0
2018-Jun-16 21:59N 39°17' W 076°37'0 0.0
2018-Jun-16 21:29N 39°17' W 076°37'0 0.0
2018-Jun-16 20:59N 39°17' W 076°37'0 0.0
2018-Jun-16 20:29N 39°17' W 076°37'0 0.0
2018-Jun-16 19:59N 39°17' W 076°37'0 0.0
2018-Jun-16 19:29N 39°17' W 076°37'0 0.0
2018-Jun-16 18:59N 39°17' W 076°37'0 0.0
2018-Jun-16 18:29N 39°17' W 076°37'0 0.0
2018-Jun-16 18:00N 39°17' W 076°37'2 3.2
2018-Jun-16 17:30N 39°16' W 076°35'3 6.7
2018-Jun-16 17:01N 39°14' W 076°32'3 6.0
2018-Jun-16 16:30N 39°16' W 076°35'2 3.7
2018-Jun-16 16:00N 39°17' W 076°37'0 0.0
2018-Jun-16 15:28N 39°17' W 076°37'0 0.0
2018-Jun-16 02:14N 39°17' W 076°37'0 0.0
2018-Jun-16 02:00N 39°17' W 076°37'2 3.8
2018-Jun-16 01:30N 39°16' W 076°35'3 6.0
2018-Jun-16 01:00N 39°14' W 076°32'4 7.2
2018-Jun-16 00:30N 39°11' W 076°29'3 6.0
2018-Jun-16 00:00N 39°13' W 076°32'4 7.4
2018-Jun-15 23:31N 39°16' W 076°35'2 0.1
2018-Jun-15 01:52N 39°17' W 076°37'0 0.0
2018-Jun-15 01:28N 39°17' W 076°37'2 3.7
2018-Jun-15 01:00N 39°16' W 076°35'3 6.0
2018-Jun-15 00:30N 39°14' W 076°32'0 0.9
2018-Jun-15 00:00N 39°14' W 076°33'3 6.7
2018-Jun-14 23:30N 39°17' W 076°36'1 1.6
2018-Jun-14 23:00N 39°17' W 076°37'0 0.0
2018-Jun-14 22:30N 39°17' W 076°37'0 0.0
2018-Jun-14 22:00N 39°17' W 076°37'0 0.0
2018-Jun-14 21:30N 39°17' W 076°37'2 3.9
2018-Jun-14 21:00N 39°16' W 076°35'3 6.2
2018-Jun-14 20:31N 39°14' W 076°32'3 6.3
2018-Jun-14 20:00N 39°16' W 076°35'2 3.4
2018-Jun-14 19:28N 39°17' W 076°37'0 0.0
2018-Jun-14 01:34N 39°17' W 076°37'0 0.0
2018-Jun-14 01:30N 39°17' W 076°37'0 0.5
2018-Jun-14 01:00N 39°17' W 076°36'0 0.0
2018-Jun-14 00:30N 39°17' W 076°36'2 3.8
2018-Jun-14 00:00N 39°16' W 076°34'0 0.5
2018-Jun-13 23:30N 39°16' W 076°34'2 4.2
2018-Jun-13 23:00N 39°17' W 076°36'0 0.0
2018-Jun-13 22:25N 39°17' W 076°36'0 0.0
2018-Jun-13 21:58N 39°17' W 076°36'0 0.0
2018-Jun-13 21:25N 39°17' W 076°36'0 0.7
2018-Jun-13 20:59N 39°17' W 076°37'0 0.1
2018-Jun-13 20:29N 39°17' W 076°37'0 0.0
2018-Jun-13 19:59N 39°17' W 076°37'0 0.0
2018-Jun-13 19:29N 39°17' W 076°37'0 0.0
2018-Jun-13 18:53N 39°17' W 076°37'0 0.0
2018-Jun-13 18:29N 39°17' W 076°37'0 0.0
2018-Jun-13 17:59N 39°17' W 076°37'2 4.7
2018-Jun-13 17:31N 39°16' W 076°34'3 6.9
2018-Jun-13 17:00N 39°13' W 076°31'3 5.8
2018-Jun-13 16:31N 39°15' W 076°34'3 5.4
2018-Jun-13 15:59N 39°17' W 076°37'0 0.1
2018-Jun-13 15:29N 39°17' W 076°37'0 0.0
2018-Jun-13 14:56N 39°17' W 076°37'0 0.0
2018-Jun-13 14:29N 39°17' W 076°37'0 0.0
2018-Jun-13 01:59N 39°17' W 076°37'0 0.1
2018-Jun-13 01:30N 39°17' W 076°37'2 4.1
2018-Jun-13 01:00N 39°16' W 076°34'4 7.2
2018-Jun-13 00:30N 39°13' W 076°32'1 3.0
2018-Jun-13 00:01N 39°14' W 076°33'3 5.8
2018-Jun-12 23:30N 39°17' W 076°35'1 2.1
2018-Jun-12 22:53N 39°17' W 076°37'0 0.0
2018-Jun-12 22:29N 39°17' W 076°37'0 0.0
2018-Jun-12 22:00N 39°17' W 076°37'0 0.0
2018-Jun-12 21:31N 39°17' W 076°37'0 0.0
2018-Jun-12 20:59N 39°17' W 076°37'0 0.0
2018-Jun-12 20:30N 39°17' W 076°37'0 0.0
2018-Jun-12 20:00N 39°17' W 076°37'0 0.0
2018-Jun-12 19:30N 39°17' W 076°37'0 0.0
2018-Jun-12 19:00N 39°17' W 076°37'0 0.0
2018-Jun-12 18:30N 39°17' W 076°37'0 0.0
2018-Jun-12 18:00N 39°17' W 076°37'0 0.0
2018-Jun-12 17:31N 39°17' W 076°37'2 4.9
2018-Jun-12 17:01N 39°16' W 076°34'2 4.7
2018-Jun-12 16:31N 39°14' W 076°33'3 6.3
2018-Jun-12 16:01N 39°16' W 076°35'2 3.2
2018-Jun-12 15:28N 39°17' W 076°37'0 0.0
2018-Jun-12 14:58N 39°17' W 076°37'0 0.0
2018-Jun-12 01:46N 39°17' W 076°37'0 0.0
2018-Jun-12 01:29N 39°17' W 076°37'1 1.9
2018-Jun-12 01:01N 39°17' W 076°36'3 5.4
2018-Jun-12 00:30N 39°15' W 076°33'2 3.1
2018-Jun-12 00:01N 39°13' W 076°32'3 6.2
2018-Jun-11 23:30N 39°16' W 076°35'2 4.0
2018-Jun-11 23:00N 39°17' W 076°37'0 0.1
2018-Jun-11 22:29N 39°17' W 076°37'0 0.1
2018-Jun-11 21:59N 39°17' W 076°37'0 0.0
2018-Jun-11 21:29N 39°17' W 076°37'0 0.0
2018-Jun-11 20:59N 39°17' W 076°37'0 0.0
2018-Jun-11 20:29N 39°17' W 076°37'0 0.0
2018-Jun-11 19:59N 39°17' W 076°37'0 0.0
2018-Jun-11 19:29N 39°17' W 076°37'0 0.0
2018-Jun-11 19:01N 39°17' W 076°37'2 4.3
2018-Jun-11 18:31N 39°16' W 076°34'2 4.4
2018-Jun-11 18:00N 39°14' W 076°32'1 2.1
2018-Jun-11 17:30N 39°13' W 076°32'3 5.1
2018-Jun-11 17:01N 39°15' W 076°34'2 4.8
2018-Jun-11 16:30N 39°17' W 076°36'0 0.5
2018-Jun-11 16:01N 39°17' W 076°37'0 0.0
2018-Jun-10 23:46N 39°17' W 076°37'0 0.0
2018-Jun-10 23:30N 39°17' W 076°37'1 2.5
2018-Jun-10 23:00N 39°17' W 076°35'3 6.3
2018-Jun-10 22:30N 39°14' W 076°33'0 0.7
2018-Jun-10 22:00N 39°14' W 076°33'3 5.2
2018-Jun-10 21:30N 39°16' W 076°35'1 2.5
2018-Jun-10 20:57N 39°17' W 076°37'0 0.0
2018-Jun-10 20:24N 39°17' W 076°37'0 0.0
2018-Jun-10 20:00N 39°17' W 076°37'0 0.0
2018-Jun-10 19:30N 39°17' W 076°37'0 0.0
2018-Jun-10 19:00N 39°17' W 076°37'0 0.0
2018-Jun-10 18:30N 39°17' W 076°37'0 0.0
2018-Jun-10 18:00N 39°17' W 076°37'2 3.8
2018-Jun-10 17:30N 39°16' W 076°35'4 7.7
2018-Jun-10 17:01N 39°13' W 076°32'3 6.5
2018-Jun-10 16:30N 39°16' W 076°34'2 4.4
2018-Jun-10 15:58N 39°17' W 076°37'0 0.0
2018-Jun-10 15:28N 39°17' W 076°37'0 0.0
2018-Jun-10 14:58N 39°17' W 076°37'0 0.0
2018-Jun-10 06:27N 39°17' W 076°37'0 0.0
2018-Jun-10 06:00N 39°17' W 076°37'2 4.4
2018-Jun-10 05:30N 39°16' W 076°34'0 0.2
2018-Jun-10 05:01N 39°16' W 076°34'2 3.1
2018-Jun-10 04:31N 39°17' W 076°36'1 1.1
2018-Jun-10 04:00N 39°17' W 076°37'0 0.0
2018-Jun-10 03:30N 39°17' W 076°37'0 0.0
2018-Jun-10 03:00N 39°17' W 076°37'0 0.0
2018-Jun-10 02:30N 39°17' W 076°37'0 0.0
2018-Jun-10 02:00N 39°17' W 076°37'2 3.4
2018-Jun-10 01:30N 39°16' W 076°35'1 2.8
2018-Jun-10 01:00N 39°15' W 076°34'3 6.1
2018-Jun-10 00:31N 39°13' W 076°31'2 4.4
2018-Jun-10 00:00N 39°14' W 076°33'3 5.3
2018-Jun-09 23:30N 39°16' W 076°35'  

Dump ship's entire track history